Time;durP1;ratioP1;P1;durP2;ratioP2;P2;SDS_P1;SDS_P2;PMS_P1;PMS_P2;Temp;Humidity;BMP_temperature;BMP_pressure;BME280_temperature;BME280_humidity;BME280_pressure;Samples;Min_cycle;Max_cycle;Signal;HPM_P1;HPM_P2
2023/08/10 00:00:12;;;;;;;12.95;2.55;;;;;;;;;;4974136;28;20499;-80
2023/08/10 00:02:39;;;;;;;8.23;2.80;;;;;;;;;;4976519;28;20144;-80
2023/08/10 00:05:05;;;;;;;8.18;3.25;;;;;;;;;;4991429;28;20031;-79
2023/08/10 00:07:31;;;;;;;6.82;2.92;;;;;;;;;;4960171;28;20034;-79
2023/08/10 00:09:57;;;;;;;10.23;2.50;;;;;;;;;;4977143;28;20049;-80
2023/08/10 00:12:22;;;;;;;8.23;2.95;;;;;;;;;;4992107;28;20061;-79
2023/08/10 00:14:47;;;;;;;13.02;3.03;;;;;;;;;;4976420;28;20026;-80
2023/08/10 00:17:13;;;;;;;6.75;2.17;;;;;;;;;;4992198;28;20560;-80
2023/08/10 00:19:38;;;;;;;5.35;2.92;;;;;;;;;;4977177;28;20026;-79
2023/08/10 00:22:03;;;;;;;10.18;2.20;;;;;;;;;;4976269;28;20023;-80
2023/08/10 00:24:29;;;;;;;4.10;2.70;;;;;;;;;;4975583;28;20033;-80
2023/08/10 00:26:54;;;;;;;14.70;3.85;;;;;;;;;;4977087;28;20026;-80
2023/08/10 00:29:19;;;;;;;10.35;2.85;;;;;;;;;;4975934;28;20037;-80
2023/08/10 00:31:45;;;;;;;9.07;2.90;;;;;;;;;;4975883;28;20054;-80
2023/08/10 00:34:10;;;;;;;7.32;2.42;;;;;;;;;;4976888;28;20031;-80
2023/08/10 00:36:36;;;;;;;7.78;2.45;;;;;;;;;;4992094;28;20070;-80
2023/08/10 00:39:01;;;;;;;9.63;2.70;;;;;;;;;;4976768;28;20023;-80
2023/08/10 00:41:30;;;;;;;5.22;2.40;;;;;;;;;;4976814;28;20038;-80
2023/08/10 00:43:55;;;;;;;9.23;2.75;;;;;;;;;;4977094;28;20027;-80
2023/08/10 00:46:20;;;;;;;12.10;3.50;;;;;;;;;;4993917;28;20023;-80
2023/08/10 00:48:46;;;;;;;6.60;2.38;;;;;;;;;;4978198;28;20038;-80
2023/08/10 00:51:11;;;;;;;11.20;2.75;;;;;;;;;;4976425;28;20030;-80
2023/08/10 00:53:37;;;;;;;9.10;2.72;;;;;;;;;;4989338;23;21073;-79
2023/08/10 00:56:03;;;;;;;7.20;3.10;;;;;;;;;;5031354;28;20555;-79
2023/08/10 00:58:30;;;;;;;17.80;2.78;;;;;;;;;;4997323;28;20025;-79
2023/08/10 01:00:56;;;;;;;11.40;3.33;;;;;;;;;;5030365;28;20030;-80
2023/08/10 01:03:22;;;;;;;9.93;2.75;;;;;;;;;;5030408;28;20028;-79
2023/08/10 01:06:06;;;;;;;7.82;2.35;;;;;;;;;;5014058;28;20104;-79
2023/08/10 01:08:42;;;;;;;10.77;2.40;;;;;;;;;;5013504;28;20467;-79
2023/08/10 01:11:21;;;;;;;8.80;2.88;;;;;;;;;;4997992;28;20021;-79
2023/08/10 01:13:58;;;;;;;9.20;2.60;;;;;;;;;;5014002;28;20029;-79
2023/08/10 01:16:25;;;;;;;8.63;3.58;;;;;;;;;;5015283;28;20022;-80
2023/08/10 01:18:51;;;;;;;13.40;2.65;;;;;;;;;;5030329;28;20030;-79
2023/08/10 01:21:27;;;;;;;8.63;2.65;;;;;;;;;;5013742;28;20033;-79
2023/08/10 01:23:55;;;;;;;5.18;2.38;;;;;;;;;;5013880;28;20079;-79
2023/08/10 01:26:20;;;;;;;13.07;3.45;;;;;;;;;;5015190;28;20056;-79
2023/08/10 01:28:46;;;;;;;6.72;3.42;;;;;;;;;;5030368;28;20029;-79
2023/08/10 01:31:11;;;;;;;14.10;3.40;;;;;;;;;;5013660;28;20058;-79
2023/08/10 01:33:36;;;;;;;11.80;2.83;;;;;;;;;;4998214;28;20472;-79
2023/08/10 01:36:02;;;;;;;4.78;2.40;;;;;;;;;;5020250;28;20045;-80
2023/08/10 01:38:28;;;;;;;4.72;2.65;;;;;;;;;;5013873;28;20037;-80
2023/08/10 01:40:53;;;;;;;4.93;3.42;;;;;;;;;;5013682;28;20033;-80
2023/08/10 01:43:18;;;;;;;5.05;2.72;;;;;;;;;;5013461;28;20038;-80
2023/08/10 01:45:46;;;;;;;9.18;2.45;;;;;;;;;;5014068;28;20129;-80
2023/08/10 01:48:17;;;;;;;7.70;2.40;;;;;;;;;;5030966;28;20038;-79
2023/08/10 01:50:43;;;;;;;;;;;;;;;;;;5031132;28;20022;-79
2023/08/10 01:53:12;;;;;;;7.82;2.83;;;;;;;;;;5013696;28;20398;-79
2023/08/10 01:55:37;;;;;;;8.30;2.30;;;;;;;;;;5029320;28;20112;-79
2023/08/10 01:58:06;;;;;;;6.75;2.80;;;;;;;;;;5030446;28;20041;-78
2023/08/10 02:00:33;;;;;;;7.60;3.80;;;;;;;;;;5013769;28;20025;-79
2023/08/10 02:02:58;;;;;;;8.50;3.58;;;;;;;;;;5014141;28;20022;-78
2023/08/10 02:05:25;;;;;;;12.48;3.08;;;;;;;;;;5016054;28;20033;-79
2023/08/10 02:07:50;;;;;;;12.73;3.15;;;;;;;;;;5016731;28;20081;-78
2023/08/10 02:10:16;;;;;;;11.55;3.45;;;;;;;;;;5033576;28;20022;-79
2023/08/10 02:12:41;;;;;;;12.52;4.03;;;;;;;;;;5017960;28;20113;-79
2023/08/10 02:15:07;;;;;;;11.98;2.58;;;;;;;;;;5033119;28;20025;-79
2023/08/10 02:17:35;;;;;;;7.95;2.63;;;;;;;;;;5016476;28;20022;-78
2023/08/10 02:20:04;;;;;;;11.23;2.55;;;;;;;;;;5016548;28;20442;-78
2023/08/10 02:22:30;;;;;;;11.20;2.45;;;;;;;;;;5016279;28;20033;-79
2023/08/10 02:24:55;;;;;;;11.40;3.17;;;;;;;;;;5016250;28;20088;-79
2023/08/10 02:27:23;;;;;;;16.35;3.05;;;;;;;;;;5032665;28;20049;-79
2023/08/10 02:29:48;;;;;;;11.30;2.92;;;;;;;;;;5032922;28;20030;-79
2023/08/10 02:32:16;;;;;;;10.68;2.33;;;;;;;;;;5016509;28;20451;-78
2023/08/10 02:34:42;;;;;;;9.57;2.88;;;;;;;;;;5016174;28;20033;-79
2023/08/10 02:37:07;;;;;;;8.35;2.55;;;;;;;;;;5015948;28;20068;-79
2023/08/10 02:39:32;;;;;;;9.93;2.85;;;;;;;;;;5016800;28;20095;-79
2023/08/10 02:42:02;;;;;;;8.90;2.63;;;;;;;;;;5032681;28;20060;-79
2023/08/10 02:44:27;;;;;;;12.27;3.03;;;;;;;;;;5016284;28;20022;-79
2023/08/10 02:46:53;;;;;;;7.20;2.85;;;;;;;;;;5017124;28;20033;-79
2023/08/10 02:49:18;;;;;;;10.68;3.38;;;;;;;;;;5032394;28;20061;-80
2023/08/10 02:51:43;;;;;;;10.13;3.67;;;;;;;;;;5032119;28;20022;-79
2023/08/10 02:54:08;;;;;;;12.43;2.75;;;;;;;;;;5016182;23;20605;-79
2023/08/10 02:56:34;;;;;;;13.13;4.00;;;;;;;;;;4997647;28;20033;-79
2023/08/10 02:59:02;;;;;;;11.43;3.70;;;;;;;;;;5012208;28;20496;-79
2023/08/10 03:01:27;;;;;;;9.10;3.70;;;;;;;;;;4996156;28;20057;-79
2023/08/10 03:03:52;;;;;;;11.82;3.33;;;;;;;;;;5012333;28;20675;-79
2023/08/10 03:06:18;;;;;;;10.85;3.58;;;;;;;;;;4996037;28;20032;-79
2023/08/10 03:08:43;;;;;;;12.23;3.22;;;;;;;;;;4997128;28;20030;-79
2023/08/10 03:11:08;;;;;;;8.38;3.25;;;;;;;;;;5007697;28;20161;-78
2023/08/10 03:13:34;;;;;;;6.65;3.00;;;;;;;;;;5011915;28;20057;-79
2023/08/10 03:16:02;;;;;;;10.93;3.35;;;;;;;;;;5002260;28;20476;-80
2023/08/10 03:18:27;;;;;;;11.35;3.55;;;;;;;;;;5001746;28;20030;-80
2023/08/10 03:20:52;;;;;;;13.90;5.20;;;;;;;;;;4991545;28;20029;-79
2023/08/10 03:23:17;;;;;;;14.18;4.15;;;;;;;;;;4978489;28;20378;-79
2023/08/10 03:25:43;;;;;;;16.65;4.22;;;;;;;;;;4994165;28;20122;-78
2023/08/10 03:28:08;;;;;;;16.33;4.82;;;;;;;;;;4994980;28;20022;-78
2023/08/10 03:30:36;;;;;;;13.15;4.05;;;;;;;;;;4995750;28;20407;-79
2023/08/10 03:33:02;;;;;;;7.38;3.78;;;;;;;;;;4995151;28;20054;-78
2023/08/10 03:35:28;;;;;;;15.27;4.10;;;;;;;;;;4995009;28;20026;-78
2023/08/10 03:37:53;;;;;;;10.80;3.90;;;;;;;;;;4995756;28;20030;-78
2023/08/10 03:40:18;;;;;;;10.32;3.80;;;;;;;;;;4994990;28;20029;-78
2023/08/10 03:42:44;;;;;;;17.08;3.72;;;;;;;;;;4997031;28;20560;-78
2023/08/10 03:45:09;;;;;;;10.98;3.55;;;;;;;;;;4996383;28;20077;-78
2023/08/10 03:47:34;;;;;;;12.13;3.47;;;;;;;;;;5014217;28;20041;-79
2023/08/10 03:50:00;;;;;;;14.45;4.05;;;;;;;;;;4999787;28;20045;-79
2023/08/10 03:52:26;;;;;;;8.23;4.25;;;;;;;;;;4999534;28;20030;-80
2023/08/10 03:54:51;;;;;;;9.68;2.88;;;;;;;;;;4996744;28;20385;-79
2023/08/10 03:57:16;;;;;;;15.45;5.25;;;;;;;;;;4978576;28;20030;-78
2023/08/10 03:59:42;;;;;;;23.13;5.00;;;;;;;;;;5011646;28;20504;-78
2023/08/10 04:02:08;;;;;;;12.93;3.70;;;;;;;;;;4995732;28;20030;-78
2023/08/10 04:04:36;;;;;;;14.50;2.90;;;;;;;;;;4996488;28;20492;-78
2023/08/10 04:07:01;;;;;;;7.60;3.03;;;;;;;;;;4995958;28;20559;-79
2023/08/10 04:09:27;;;;;;;8.63;3.03;;;;;;;;;;4978632;28;20039;-78
2023/08/10 04:11:53;;;;;;;9.90;2.67;;;;;;;;;;4975235;28;20026;-78
2023/08/10 04:14:18;;;;;;;6.68;2.80;;;;;;;;;;4991143;28;20129;-79
2023/08/10 04:16:43;;;;;;;6.15;2.55;;;;;;;;;;4999604;28;20030;-78
2023/08/10 04:19:09;;;;;;;8.43;2.25;;;;;;;;;;5008783;28;20054;-78
2023/08/10 04:21:35;;;;;;;7.70;1.67;;;;;;;;;;4995458;28;20389;-78
2023/08/10 04:24:00;;;;;;;6.07;2.38;;;;;;;;;;4979240;28;20065;-78
2023/08/10 04:26:25;;;;;;;6.25;3.00;;;;;;;;;;4993448;28;20022;-79
2023/08/10 04:28:51;;;;;;;8.68;3.22;;;;;;;;;;5010421;28;20026;-79
2023/08/10 04:31:16;;;;;;;10.15;2.13;;;;;;;;;;4993353;28;20365;-79
2023/08/10 04:33:42;;;;;;;7.72;2.20;;;;;;;;;;4993576;28;20093;-79
2023/08/10 04:36:07;;;;;;;13.07;4.40;;;;;;;;;;4994820;23;20103;-73
2023/08/10 04:38:33;;;;;;;5.88;2.63;;;;;;;;;;4993764;28;20048;-72
2023/08/10 04:40:58;;;;;;;11.13;2.80;;;;;;;;;;4993725;28;20544;-73
2023/08/10 04:43:24;;;;;;;10.23;2.95;;;;;;;;;;4992629;28;20117;-73
2023/08/10 04:45:49;;;;;;;8.68;2.20;;;;;;;;;;4991392;28;20037;-73
2023/08/10 04:48:15;;;;;;;9.48;2.28;;;;;;;;;;4974409;28;20025;-73
2023/08/10 04:50:40;;;;;;;8.13;2.22;;;;;;;;;;4974037;28;20437;-72
2023/08/10 04:53:05;;;;;;;6.45;2.20;;;;;;;;;;4990012;28;20061;-73
2023/08/10 04:55:31;;;;;;;7.50;2.40;;;;;;;;;;4993564;28;20026;-73
2023/08/10 04:57:56;;;;;;;14.20;2.47;;;;;;;;;;4993505;28;20050;-72
2023/08/10 05:00:23;;;;;;;7.93;2.22;;;;;;;;;;4993704;28;20038;-73
2023/08/10 05:02:48;;;;;;;9.23;3.00;;;;;;;;;;4991790;28;20026;-72
2023/08/10 05:05:14;;;;;;;11.25;2.75;;;;;;;;;;5008619;28;20046;-72
2023/08/10 05:07:39;;;;;;;6.68;2.20;;;;;;;;;;4993739;28;20022;-72
2023/08/10 05:10:06;;;;;;;10.48;2.65;;;;;;;;;;5008458;28;20054;-73
2023/08/10 05:12:32;;;;;;;9.55;3.25;;;;;;;;;;4991886;28;20034;-73
2023/08/10 05:14:57;;;;;;;6.40;2.30;;;;;;;;;;5008488;28;20507;-73
2023/08/10 05:17:22;;;;;;;5.43;2.45;;;;;;;;;;4993309;28;20495;-73
2023/08/10 05:19:48;;;;;;;8.32;2.25;;;;;;;;;;4993506;28;20057;-72
2023/08/10 05:22:13;;;;;;;6.03;1.98;;;;;;;;;;4993450;28;20027;-72
2023/08/10 05:24:39;;;;;;;9.13;2.75;;;;;;;;;;5008034;28;20041;-72
2023/08/10 05:27:05;;;;;;;8.98;2.47;;;;;;;;;;4992931;28;20037;-72
2023/08/10 05:29:30;;;;;;;8.10;2.28;;;;;;;;;;4993621;28;20041;-72
2023/08/10 05:31:55;;;;;;;7.00;2.70;;;;;;;;;;4993570;28;20026;-72
2023/08/10 05:34:21;;;;;;;7.68;2.53;;;;;;;;;;4991727;28;20134;-73
2023/08/10 05:36:47;;;;;;;7.55;2.28;;;;;;;;;;4995084;28;20030;-72
2023/08/10 05:39:12;;;;;;;11.32;2.47;;;;;;;;;;4994692;28;20369;-72
2023/08/10 05:41:37;;;;;;;8.80;3.20;;;;;;;;;;4997075;28;20041;-73
2023/08/10 05:44:03;;;;;;;10.00;2.60;;;;;;;;;;4996230;28;20022;-72
2023/08/10 05:46:28;;;;;;;8.43;1.90;;;;;;;;;;4992320;28;20022;-73
2023/08/10 05:48:54;;;;;;;7.28;2.17;;;;;;;;;;4996996;28;20049;-72
2023/08/10 05:51:20;;;;;;;7.95;2.50;;;;;;;;;;4996759;28;20094;-72
2023/08/10 05:53:45;;;;;;;9.85;3.67;;;;;;;;;;4997125;28;20030;-73
2023/08/10 05:56:10;;;;;;;12.20;2.72;;;;;;;;;;4996478;28;20026;-73
2023/08/10 05:58:36;;;;;;;8.50;2.10;;;;;;;;;;4996415;28;20113;-72
2023/08/10 06:01:01;;;;;;;10.13;2.58;;;;;;;;;;5004311;28;20035;-73
2023/08/10 06:03:27;;;;;;;4.40;2.50;;;;;;;;;;4977354;28;20085;-72
2023/08/10 06:05:53;;;;;;;9.27;2.67;;;;;;;;;;4976456;28;20027;-72
2023/08/10 06:08:18;;;;;;;6.28;2.50;;;;;;;;;;4996792;28;20026;-72
2023/08/10 06:10:43;;;;;;;6.40;2.40;;;;;;;;;;4996372;28;20027;-73
2023/08/10 06:13:09;;;;;;;10.27;2.88;;;;;;;;;;4997116;28;20046;-72
2023/08/10 06:15:34;;;;;;;9.73;2.40;;;;;;;;;;4996585;28;20469;-73
2023/08/10 06:18:02;;;;;;;5.75;2.17;;;;;;;;;;4996235;28;20034;-72
2023/08/10 06:20:27;;;;;;;7.50;2.05;;;;;;;;;;5011828;28;20027;-73
2023/08/10 06:22:54;;;;;;;5.55;2.38;;;;;;;;;;4995383;28;20451;-72
2023/08/10 06:25:20;;;;;;;4.85;1.80;;;;;;;;;;4996201;28;20018;-73
2023/08/10 06:27:47;;;;;;;11.32;2.10;;;;;;;;;;4996607;28;20076;-73
2023/08/10 06:30:13;;;;;;;6.90;2.10;;;;;;;;;;4996444;28;20023;-73
2023/08/10 06:32:39;;;;;;;6.03;2.45;;;;;;;;;;4994765;28;20030;-73
2023/08/10 06:35:05;;;;;;;7.72;2.33;;;;;;;;;;4995035;28;20026;-72
2023/08/10 06:37:30;;;;;;;12.02;2.58;;;;;;;;;;4994993;28;20117;-73
2023/08/10 06:39:56;;;;;;;3.80;1.83;;;;;;;;;;4996205;28;20037;-73
2023/08/10 06:42:22;;;;;;;7.32;2.67;;;;;;;;;;4995850;28;20058;-73
2023/08/10 06:44:47;;;;;;;11.57;2.25;;;;;;;;;;4996641;28;20435;-73
2023/08/10 06:47:13;;;;;;;6.40;1.77;;;;;;;;;;4995892;28;20105;-73
2023/08/10 06:49:38;;;;;;;9.75;2.15;;;;;;;;;;4995714;28;20447;-73
2023/08/10 06:52:04;;;;;;;13.50;3.20;;;;;;;;;;4994605;28;20105;-73
2023/08/10 06:54:30;;;;;;;6.45;2.78;;;;;;;;;;4996027;28;20092;-73
2023/08/10 06:56:55;;;;;;;5.80;2.70;;;;;;;;;;4994658;28;20030;-73
2023/08/10 06:59:21;;;;;;;13.20;2.50;;;;;;;;;;4994410;28;20029;-73
2023/08/10 07:01:46;;;;;;;10.85;2.22;;;;;;;;;;4995928;28;20037;-72
2023/08/10 07:04:12;;;;;;;7.75;1.90;;;;;;;;;;4995594;28;20101;-73
2023/08/10 07:06:37;;;;;;;9.82;2.35;;;;;;;;;;4995552;28;20031;-72
2023/08/10 07:09:03;;;;;;;7.00;2.85;;;;;;;;;;4994385;28;20026;-72
2023/08/10 07:11:29;;;;;;;5.85;2.35;;;;;;;;;;4993799;28;20026;-72
2023/08/10 07:13:54;;;;;;;11.30;2.25;;;;;;;;;;4994807;28;20080;-72
2023/08/10 07:16:20;;;;;;;5.25;2.30;;;;;;;;;;4995527;28;20041;-73
2023/08/10 07:18:45;;;;;;;9.02;2.35;;;;;;;;;;4994142;28;20113;-73
2023/08/10 07:21:10;;;;;;;5.47;2.00;;;;;;;;;;4995306;28;20401;-73
2023/08/10 07:23:36;;;;;;;15.57;3.08;;;;;;;;;;4994869;28;20037;-73
2023/08/10 07:26:01;;;;;;;5.93;2.55;;;;;;;;;;5010244;28;20033;-73
2023/08/10 07:28:26;;;;;;;11.30;2.00;;;;;;;;;;4995204;28;20061;-73
2023/08/10 07:30:52;;;;;;;7.38;2.28;;;;;;;;;;4993772;28;20041;-73
2023/08/10 07:33:18;;;;;;;13.00;2.83;;;;;;;;;;4993566;28;20026;-73
2023/08/10 07:35:44;;;;;;;8.25;1.92;;;;;;;;;;4994943;28;20084;-73
2023/08/10 07:38:10;;;;;;;6.85;1.90;;;;;;;;;;4993452;28;20022;-73
2023/08/10 07:40:35;;;;;;;11.25;2.30;;;;;;;;;;4993916;28;20026;-73
2023/08/10 07:43:01;;;;;;;8.68;2.70;;;;;;;;;;4994899;28;20023;-73
2023/08/10 07:45:26;;;;;;;13.25;2.53;;;;;;;;;;4995102;28;20026;-73
2023/08/10 07:47:51;;;;;;;9.10;1.75;;;;;;;;;;4994450;28;20404;-73
2023/08/10 07:50:17;;;;;;;5.03;2.00;;;;;;;;;;4994777;28;20061;-74
2023/08/10 07:52:42;;;;;;;4.82;1.55;;;;;;;;;;4994846;28;20121;-73
2023/08/10 07:55:08;;;;;;;7.43;1.55;;;;;;;;;;5009790;28;20373;-74
2023/08/10 07:57:33;;;;;;;6.55;1.98;;;;;;;;;;4993749;28;20030;-73
2023/08/10 08:00:04;;;;;;;5.55;1.58;;;;;;;;;;4994165;28;20400;-73
2023/08/10 08:02:31;;;;;;;6.40;1.98;;;;;;;;;;4994317;28;20026;-74
2023/08/10 08:04:56;;;;;;;5.25;1.45;;;;;;;;;;4993726;28;20467;-74
2023/08/10 08:07:23;;;;;;;5.97;2.00;;;;;;;;;;4994563;28;20106;-74
2023/08/10 08:09:51;;;;;;;8.85;1.67;;;;;;;;;;4994682;28;20027;-74
2023/08/10 08:12:16;;;;;;;4.82;1.60;;;;;;;;;;5009110;28;20092;-74
2023/08/10 08:14:43;;;;;;;11.63;2.90;;;;;;;;;;4994524;28;20109;-73
2023/08/10 08:17:08;;;;;;;7.43;2.25;;;;;;;;;;4993500;28;20022;-73
2023/08/10 08:19:34;;;;;;;5.57;1.80;;;;;;;;;;4993221;28;20517;-73
2023/08/10 08:21:59;;;;;;;7.18;1.90;;;;;;;;;;4994447;28;20098;-74
2023/08/10 08:24:24;;;;;;;4.93;1.70;;;;;;;;;;4993426;28;20035;-75
2023/08/10 08:26:50;;;;;;;8.25;2.22;;;;;;;;;;4994149;28;20026;-74
2023/08/10 08:29:15;;;;;;;7.35;2.05;;;;;;;;;;4993453;28;20124;-74
2023/08/10 08:31:40;;;;;;;5.35;2.03;;;;;;;;;;4994402;28;20030;-74
2023/08/10 08:34:06;;;;;;;5.15;2.28;;;;;;;;;;4994929;28;20023;-75
2023/08/10 08:36:31;;;;;;;13.45;2.13;;;;;;;;;;4994157;28;20023;-74
2023/08/10 08:38:56;;;;;;;4.68;1.63;;;;;;;;;;4992932;28;20050;-74
2023/08/10 08:41:25;;;;;;;5.13;1.90;;;;;;;;;;4994009;28;20085;-74
2023/08/10 08:43:51;;;;;;;9.73;2.05;;;;;;;;;;4992817;28;20048;-74
2023/08/10 08:46:24;;;;;;;7.40;1.83;;;;;;;;;;4993919;28;20389;-75
2023/08/10 08:48:50;;;;;;;5.68;3.05;;;;;;;;;;4992720;28;20031;-75
2023/08/10 08:51:16;;;;;;;4.97;2.28;;;;;;;;;;4993524;28;20030;-75
2023/08/10 08:53:41;;;;;;;5.13;1.80;;;;;;;;;;4992872;28;20026;-75
2023/08/10 08:56:07;;;;;;;5.22;1.30;;;;;;;;;;5009616;28;20373;-73
2023/08/10 08:58:32;;;;;;;4.65;1.55;;;;;;;;;;4993193;28;20448;-74
2023/08/10 09:00:57;;;;;;;6.13;1.60;;;;;;;;;;4994183;28;20026;-75
2023/08/10 09:03:25;;;;;;;7.45;2.25;;;;;;;;;;4993157;28;20413;-74
2023/08/10 09:05:50;;;;;;;3.92;2.10;;;;;;;;;;4992391;28;20122;-75
2023/08/10 09:08:17;;;;;;;5.40;2.22;;;;;;;;;;4992981;28;20053;-74
2023/08/10 09:10:45;;;;;;;6.50;2.67;;;;;;;;;;4993075;28;20030;-75
2023/08/10 09:13:12;;;;;;;4.07;2.03;;;;;;;;;;4994164;28;20030;-74
2023/08/10 09:15:37;;;;;;;6.57;1.67;;;;;;;;;;4996296;28;20026;-75
2023/08/10 09:18:03;;;;;;;5.65;1.65;;;;;;;;;;4997837;28;20019;-74
2023/08/10 09:20:29;;;;;;;6.78;1.95;;;;;;;;;;4997609;28;20507;-75
2023/08/10 09:22:56;;;;;;;3.45;1.88;;;;;;;;;;4996801;28;20030;-75
2023/08/10 09:25:22;;;;;;;5.68;1.98;;;;;;;;;;4996108;28;20030;-75
2023/08/10 09:27:48;;;;;;;3.65;1.50;;;;;;;;;;4997002;28;20392;-74
2023/08/10 09:30:14;;;;;;;5.47;1.80;;;;;;;;;;4997003;28;20362;-75
2023/08/10 09:32:39;;;;;;;2.75;1.65;;;;;;;;;;4995991;28;20041;-74
2023/08/10 09:35:05;;;;;;;5.30;1.77;;;;;;;;;;4998029;28;20027;-74
2023/08/10 09:37:31;;;;;;;6.55;1.88;;;;;;;;;;4996255;28;20096;-75
2023/08/10 09:40:03;;;;;;;13.18;2.20;;;;;;;;;;4996048;28;20033;-75
2023/08/10 09:42:32;;;;;;;3.92;1.63;;;;;;;;;;5012465;28;20030;-74
2023/08/10 09:44:59;;;;;;;10.93;2.15;;;;;;;;;;4996203;28;20026;-75
2023/08/10 09:47:24;;;;;;;6.03;1.65;;;;;;;;;;4997467;28;20068;-74
2023/08/10 09:49:57;;;;;;;6.60;2.03;;;;;;;;;;4997291;28;20054;-75
2023/08/10 09:52:23;;;;;;;4.72;2.40;;;;;;;;;;4997304;28;20027;-74
2023/08/10 09:54:50;;;;;;;5.32;2.03;;;;;;;;;;4997194;28;20022;-74
2023/08/10 09:57:17;;;;;;;6.55;1.92;;;;;;;;;;4995850;28;20118;-73
2023/08/10 09:59:42;;;;;;;3.80;1.70;;;;;;;;;;4996864;28;20037;-73
2023/08/10 10:02:09;;;;;;;4.88;1.73;;;;;;;;;;4995734;28;20030;-74
2023/08/10 10:04:37;;;;;;;2.60;1.73;;;;;;;;;;4996041;28;20031;-74
2023/08/10 10:07:03;;;;;;;6.60;1.80;;;;;;;;;;4996024;28;20114;-74
2023/08/10 10:09:28;;;;;;;7.05;1.83;;;;;;;;;;4995648;28;20093;-75
2023/08/10 10:11:54;;;;;;;3.00;1.58;;;;;;;;;;4995463;28;20029;-76
2023/08/10 10:14:20;;;;;;;3.45;1.90;;;;;;;;;;4995244;28;20033;-73
2023/08/10 10:16:46;;;;;;;4.30;1.75;;;;;;;;;;4995354;28;20029;-73
2023/08/10 10:19:12;;;;;;;3.80;1.80;;;;;;;;;;4995225;28;20030;-73
2023/08/10 10:21:37;;;;;;;3.33;1.77;;;;;;;;;;4995455;28;20060;-73
2023/08/10 10:24:03;;;;;;;7.63;1.85;;;;;;;;;;4994093;28;20018;-74
2023/08/10 10:26:29;;;;;;;4.20;1.63;;;;;;;;;;4995010;28;20037;-73
2023/08/10 10:29:40;;;;;;;6.07;1.90;;;;;;;;;;4996466;28;20022;-74
2023/08/10 10:32:21;;;;;;;3.28;1.70;;;;;;;;;;4986040;28;20041;-74
2023/08/10 10:34:48;;;;;;;5.72;2.08;;;;;;;;;;4995236;28;20026;-75
2023/08/10 10:37:15;;;;;;;3.50;1.90;;;;;;;;;;4994655;28;20078;-74
2023/08/10 10:39:42;;;;;;;5.47;1.75;;;;;;;;;;4995974;28;20076;-74
2023/08/10 10:42:11;;;;;;;6.28;1.55;;;;;;;;;;4990362;28;20041;-74
2023/08/10 10:45:00;;;;;;;7.03;1.75;;;;;;;;;;4988030;28;20034;-74
2023/08/10 10:47:47;;;;;;;4.60;1.80;;;;;;;;;;4995882;28;20113;-74
2023/08/10 10:50:20;;;;;;;3.03;1.60;;;;;;;;;;5004858;28;20026;-74
2023/08/10 10:52:54;;;;;;;3.13;2.03;;;;;;;;;;5011089;28;20477;-74
2023/08/10 10:55:19;;;;;;;7.28;2.15;;;;;;;;;;4994420;28;20061;-74
2023/08/10 10:57:46;;;;;;;3.58;1.33;;;;;;;;;;5011035;28;20065;-74
2023/08/10 11:00:12;;;;;;;4.40;1.70;;;;;;;;;;5010375;28;20023;-74
2023/08/10 11:02:39;;;;;;;3.45;1.30;;;;;;;;;;4995070;28;20026;-74
2023/08/10 11:05:10;;;;;;;3.80;1.70;;;;;;;;;;5010694;28;20153;-74
2023/08/10 11:07:39;;;;;;;2.85;1.23;;;;;;;;;;4995629;28;20402;-74
2023/08/10 11:10:06;;;;;;;6.15;1.38;;;;;;;;;;5010546;28;20038;-74
2023/08/10 11:12:31;;;;;;;3.35;1.63;;;;;;;;;;4995815;28;20105;-74
2023/08/10 11:14:57;;;;;;;3.30;1.20;;;;;;;;;;4993466;28;20469;-74
2023/08/10 11:17:26;;;;;;;4.93;1.88;;;;;;;;;;4994104;28;20022;-74
2023/08/10 11:19:51;;;;;;;4.72;1.83;;;;;;;;;;4990381;28;20046;-74
2023/08/10 11:22:17;;;;;;;5.32;1.88;;;;;;;;;;4995504;28;20578;-75
2023/08/10 11:24:45;;;;;;;5.28;1.80;;;;;;;;;;4993583;28;20033;-74
2023/08/10 11:27:10;;;;;;;3.55;1.40;;;;;;;;;;5010560;28;20030;-74
2023/08/10 11:29:36;;;;;;;4.65;1.80;;;;;;;;;;4994942;28;20030;-74
2023/08/10 11:32:01;;;;;;;3.05;1.77;;;;;;;;;;4978466;28;20038;-74
2023/08/10 11:34:26;;;;;;;4.07;2.13;;;;;;;;;;4975333;28;20037;-74
2023/08/10 11:36:52;;;;;;;5.60;1.92;;;;;;;;;;4977399;28;20023;-74
2023/08/10 11:39:18;;;;;;;5.18;1.83;;;;;;;;;;4974317;28;20030;-74
2023/08/10 11:41:47;;;;;;;2.92;1.65;;;;;;;;;;4974065;28;20026;-74
2023/08/10 11:44:27;;;;;;;4.20;1.98;;;;;;;;;;4974275;28;20109;-74
2023/08/10 11:46:57;;;;;;;2.05;1.60;;;;;;;;;;4992339;28;20019;-74
2023/08/10 11:49:28;;;;;;;3.78;1.60;;;;;;;;;;4995181;28;20057;-74
2023/08/10 11:51:56;;;;;;;5.32;2.80;;;;;;;;;;4993734;28;20511;-74
2023/08/10 11:54:31;;;;;;;10.65;2.75;;;;;;;;;;4974724;28;20034;-74
2023/08/10 11:56:57;;;;;;;3.30;1.70;;;;;;;;;;4973492;28;20081;-75
2023/08/10 11:59:22;;;;;;;2.65;1.63;;;;;;;;;;4988895;28;20026;-74
2023/08/10 12:01:52;;;;;;;3.10;1.50;;;;;;;;;;4994422;28;20038;-74
2023/08/10 12:04:18;;;;;;;4.85;1.52;;;;;;;;;;4992146;28;20164;-75
2023/08/10 12:06:43;;;;;;;6.25;1.42;;;;;;;;;;4994114;28;20495;-75
2023/08/10 12:09:12;;;;;;;4.28;1.83;;;;;;;;;;5009178;28;20022;-74
2023/08/10 12:11:47;;;;;;;2.10;1.70;;;;;;;;;;4997171;28;20034;-75
2023/08/10 12:14:12;;;;;;;3.53;1.30;;;;;;;;;;4992950;28;20081;-76
2023/08/10 12:16:38;;;;;;;3.13;1.50;;;;;;;;;;4987159;28;20111;-75
2023/08/10 12:19:04;;;;;;;5.63;1.50;;;;;;;;;;4974247;28;20023;-75
2023/08/10 12:21:29;;;;;;;3.05;1.77;;;;;;;;;;4974375;28;20045;-76
2023/08/10 12:23:55;;;;;;;14.05;2.55;;;;;;;;;;4974832;28;20547;-73
2023/08/10 12:26:21;;;;;;;9.15;3.05;;;;;;;;;;4974361;28;20023;-73
2023/08/10 12:28:47;;;;;;;4.65;1.25;;;;;;;;;;4991185;28;20452;-72
2023/08/10 12:31:12;;;;;;;6.82;2.10;;;;;;;;;;4993933;28;20476;-73
2023/08/10 12:33:40;;;;;;;3.38;1.40;;;;;;;;;;5009201;28;20034;-73
2023/08/10 12:36:05;;;;;;;2.20;1.23;;;;;;;;;;4993156;28;20455;-72
2023/08/10 12:38:31;;;;;;;4.90;1.95;;;;;;;;;;4993796;28;20026;-72
2023/08/10 12:40:57;;;;;;;5.43;1.55;;;;;;;;;;5009064;28;20038;-73
2023/08/10 12:43:22;;;;;;;7.35;1.65;;;;;;;;;;4992525;28;20054;-74
2023/08/10 12:45:47;;;;;;;6.43;2.90;;;;;;;;;;4993873;28;20518;-73
2023/08/10 12:48:13;;;;;;;4.22;3.00;;;;;;;;;;4993501;28;20023;-73
2023/08/10 12:50:38;;;;;;;5.68;1.63;;;;;;;;;;5002905;28;20018;-73
2023/08/10 12:53:03;;;;;;;3.83;1.65;;;;;;;;;;4992796;28;20480;-73
2023/08/10 12:55:29;;;;;;;3.60;1.80;;;;;;;;;;4991482;28;20022;-73
2023/08/10 12:57:54;;;;;;;6.85;1.77;;;;;;;;;;4973754;28;20030;-73
2023/08/10 13:00:20;;;;;;;4.30;2.45;;;;;;;;;;4972593;28;20027;-73
2023/08/10 13:02:47;;;;;;;6.95;2.20;;;;;;;;;;5008991;28;20102;-73
2023/08/10 13:05:13;;;;;;;3.60;1.63;;;;;;;;;;5008231;28;20027;-73
2023/08/10 13:07:39;;;;;;;2.28;1.50;;;;;;;;;;5008873;28;20102;-74
2023/08/10 13:10:05;;;;;;;2.83;1.52;;;;;;;;;;4993470;28;20539;-73
2023/08/10 13:12:31;;;;;;;3.30;1.55;;;;;;;;;;4992616;28;20026;-73
2023/08/10 13:14:57;;;;;;;2.10;1.13;;;;;;;;;;4993280;28;20392;-74
2023/08/10 13:17:23;;;;;;;3.78;1.95;;;;;;;;;;4977292;28;20027;-74
2023/08/10 13:19:48;;;;;;;4.30;1.60;;;;;;;;;;4973975;28;20034;-74
2023/08/10 13:22:13;;;;;;;3.25;1.02;;;;;;;;;;4987625;28;20481;-74
2023/08/10 13:24:40;;;;;;;6.63;1.40;;;;;;;;;;4991984;28;20034;-74
2023/08/10 13:27:05;;;;;;;8.38;1.75;;;;;;;;;;5008540;28;20127;-73
2023/08/10 13:29:33;;;;;;;5.32;1.67;;;;;;;;;;4993553;28;20022;-73
2023/08/10 13:31:59;;;;;;;4.03;2.22;;;;;;;;;;4993048;28;20105;-74
2023/08/10 13:34:25;;;;;;;7.28;1.50;;;;;;;;;;4993863;28;20061;-74
2023/08/10 13:36:53;;;;;;;2.53;1.33;;;;;;;;;;5007964;28;20039;-74
2023/08/10 13:39:20;;;;;;;2.45;1.65;;;;;;;;;;4993135;28;20030;-76
2023/08/10 13:41:46;;;;;;;5.07;1.45;;;;;;;;;;4989954;28;20030;-74
2023/08/10 13:44:11;;;;;;;3.63;1.55;;;;;;;;;;4993215;28;20032;-73
2023/08/10 13:46:36;;;;;;;2.30;1.35;;;;;;;;;;4990945;28;20030;-73
2023/08/10 13:49:01;;;;;;;4.80;1.55;;;;;;;;;;4993095;28;20022;-73
2023/08/10 13:51:27;;;;;;;3.17;1.40;;;;;;;;;;4992536;28;20030;-75
2023/08/10 13:53:53;;;;;;;5.20;1.60;;;;;;;;;;4992350;28;20481;-74
2023/08/10 13:56:18;;;;;;;5.78;1.67;;;;;;;;;;4993194;28;20011;-74
2023/08/10 13:58:46;;;;;;;4.20;1.65;;;;;;;;;;4994123;28;20049;-74
2023/08/10 14:01:12;;;;;;;5.10;1.70;;;;;;;;;;4995542;28;20026;-73
2023/08/10 14:03:38;;;;;;;5.88;1.60;;;;;;;;;;4996633;28;20057;-73
2023/08/10 14:06:04;;;;;;;3.90;1.40;;;;;;;;;;4995447;28;20057;-74
2023/08/10 14:08:30;;;;;;;6.28;1.60;;;;;;;;;;4989345;28;20023;-74
2023/08/10 14:10:55;;;;;;;3.25;1.33;;;;;;;;;;4975805;28;20023;-73
2023/08/10 14:13:21;;;;;;;3.30;1.58;;;;;;;;;;4980210;28;20029;-74
2023/08/10 14:15:46;;;;;;;5.03;1.70;;;;;;;;;;4997741;28;20018;-73
2023/08/10 14:18:12;;;;;;;3.60;1.45;;;;;;;;;;4997147;28;20034;-73
2023/08/10 14:20:37;;;;;;;3.33;1.75;;;;;;;;;;4996748;28;20109;-74
2023/08/10 14:23:02;;;;;;;3.90;1.25;;;;;;;;;;4978561;28;20054;-73
2023/08/10 14:25:28;;;;;;;3.22;1.52;;;;;;;;;;4977483;28;20103;-74
2023/08/10 14:27:54;;;;;;;4.00;1.08;;;;;;;;;;4992498;28;20450;-73
2023/08/10 14:30:19;;;;;;;4.57;1.67;;;;;;;;;;4997600;28;20049;-74
2023/08/10 14:32:45;;;;;;;5.50;1.90;;;;;;;;;;4997974;28;20473;-74
2023/08/10 14:35:10;;;;;;;2.65;1.65;;;;;;;;;;4997811;28;20030;-74